Rojales, Spain
Current Conditions -  °F | °C
As of 5:00 AM on Wednesday 22 Oct 2014 (Local Time) from LEAL Reporting Station
Clear Clear  
Wind Chill: 79°   Ceiling: Unl
Heat Index: 79°   Visibility: 6mi
Dew Point: 48°   Wind: 13mph
Humidity: 34%   Direction: 290°WNW
Pressure: 30.12"   Gusts: NA
Location:  38.09°N, 0.73°W
Report Text: LEAL 220300Z 29011KT CAVOK 26/09 Q1020 NOSIG
Loading
Personal Weather Stations






























Interactive Weather Map
Tropical Storm Tracking
New forecast layout! Learn more

10-Day Weather Forecast

Advertisements
Track Severe Weather on mobile